Time;durP1;ratioP1;P1;durP2;ratioP2;P2;SDS_P1;SDS_P2;PMS_P1;PMS_P2;Temp;Humidity;BMP_temperature;BMP_pressure;BME280_temperature;BME280_humidity;BME280_pressure;Samples;Min_cycle;Max_cycle;Signal;HPM_P1;HPM_P2
2022/09/30 00:00:57;;;;;;;15.60;10.43;;;;;;;10.00;66.71;99927.50;5061300;28;20024;-64
2022/09/30 00:03:23;;;;;;;17.40;11.18;;;;;;;9.97;66.57;99930.22;5070769;28;20529;-62
2022/09/30 00:06:00;;;;;;;20.60;12.50;;;;;;;9.81;66.36;99936.75;5056772;28;20040;-63
2022/09/30 00:08:25;;;;;;;19.25;11.60;;;;;;;9.86;66.71;99941.00;5056406;28;20473;-63
2022/09/30 00:10:59;;;;;;;14.35;9.98;;;;;;;9.84;66.64;99944.56;5054298;28;20039;-62
2022/09/30 00:13:25;;;;;;;13.50;9.50;;;;;;;9.85;66.80;99949.78;5050758;28;20057;-64
2022/09/30 00:15:50;;;;;;;14.63;10.02;;;;;;;9.84;66.38;99949.81;5053541;28;20068;-61
2022/09/30 00:18:16;;;;;;;15.10;9.93;;;;;;;9.84;66.33;99953.28;5055474;28;20442;-63
2022/09/30 00:20:41;;;;;;;15.20;10.23;;;;;;;9.86;66.50;99956.75;5055751;28;20069;-61
2022/09/30 00:23:06;;;;;;;17.52;11.55;;;;;;;9.80;65.94;99956.03;5048125;28;20032;-63
2022/09/30 00:25:32;;;;;;;17.02;10.73;;;;;;;9.82;65.84;99954.25;5056197;28;20033;-63
2022/09/30 00:27:57;;;;;;;15.18;10.38;;;;;;;9.80;65.96;99961.28;5056290;28;20384;-61
2022/09/30 00:30:22;;;;;;;15.85;8.63;;;;;;;9.82;65.83;99957.75;5055696;28;20083;-63
2022/09/30 00:32:48;;;;;;;14.77;9.27;;;;;;;9.82;65.70;99965.59;5055618;28;20086;-63
2022/09/30 00:35:13;;;;;;;15.85;9.88;;;;;;;9.81;65.68;99971.75;5049985;28;20029;-63
2022/09/30 00:37:38;;;;;;;18.30;12.02;;;;;;;9.79;65.50;99970.06;5055947;28;20029;-64
2022/09/30 00:40:04;;;;;;;15.77;10.23;;;;;;;9.82;65.51;99975.25;5054613;28;20073;-63
2022/09/30 00:42:30;;;;;;;18.27;10.50;;;;;;;9.82;65.60;99977.88;5051000;28;20408;-63
2022/09/30 00:45:05;;;;;;;18.38;11.43;;;;;;;9.85;65.44;99988.25;5056323;28;20048;-63
2022/09/30 00:47:43;;;;;;;15.10;10.45;;;;;;;9.82;65.54;99993.63;5053581;28;20036;-63
2022/09/30 00:50:33;;;;;;;17.58;11.02;;;;;;;9.83;65.51;99997.94;5055057;28;20036;-62
2022/09/30 00:53:04;;;;;;;13.18;9.43;;;;;;;9.74;65.76;100000.81;5053012;28;20032;-63
2022/09/30 00:55:41;;;;;;;14.85;10.00;;;;;;;9.75;65.40;100006.00;5070018;28;20123;-63
2022/09/30 00:58:10;;;;;;;19.77;11.95;;;;;;;9.74;65.22;100004.28;5065356;28;20143;-63
2022/09/30 01:00:36;;;;;;;15.95;11.07;;;;;;;9.70;65.41;100004.41;5055560;28;20025;-63
2022/09/30 01:03:03;;;;;;;16.60;10.57;;;;;;;9.69;65.37;99985.16;5052957;28;20446;-63
2022/09/30 01:05:31;;;;;;;17.10;11.25;;;;;;;9.69;65.47;99993.03;5052861;28;20431;-62
2022/09/30 01:07:59;;;;;;;14.60;10.10;;;;;;;9.64;65.64;99987.03;5055598;28;20039;-62
2022/09/30 01:10:24;;;;;;;15.05;9.93;;;;;;;9.55;65.53;99988.13;5053276;28;20041;-62
2022/09/30 01:12:50;;;;;;;15.95;11.35;;;;;;;9.45;65.64;99997.09;5055828;28;20033;-63
2022/09/30 01:15:18;;;;;;;14.75;9.93;;;;;;;9.40;65.41;99987.63;5055706;28;20036;-63
2022/09/30 01:17:57;;;;;;;15.43;10.23;;;;;;;9.40;65.62;99998.09;5064521;28;20475;-63
2022/09/30 01:20:55;;;;;;;13.60;9.00;;;;;;;9.35;65.43;99996.44;5047395;28;20432;-63
2022/09/30 01:23:40;;;;;;;15.65;10.18;;;;;;;9.36;65.58;99997.31;5060596;28;20055;-62
2022/09/30 01:26:23;;;;;;;15.52;9.70;;;;;;;9.37;65.45;100006.91;5054489;28;20381;-63
2022/09/30 01:28:57;;;;;;;13.80;9.60;;;;;;;9.44;65.46;100005.00;5048339;28;20025;-62
2022/09/30 01:31:55;;;;;;;15.73;10.45;;;;;;;9.48;65.37;100012.75;5050128;28;20064;-63
2022/09/30 01:34:27;;;;;;;14.02;9.52;;;;;;;9.53;65.51;100016.13;5049024;28;20033;-62
2022/09/30 01:37:09;;;;;;;17.48;11.90;;;;;;;9.53;65.02;100015.28;5056115;28;20557;-63
2022/09/30 01:39:43;;;;;;;13.60;10.23;;;;;;;9.54;65.20;100020.50;5052748;28;20059;-63
2022/09/30 01:42:25;;;;;;;16.90;10.20;;;;;;;9.53;65.12;100010.88;5055357;28;20720;-62
2022/09/30 01:45:01;;;;;;;14.30;9.68;;;;;;;9.50;65.05;100010.13;5053878;28;20499;-63
2022/09/30 01:48:05;;;;;;;14.55;9.30;;;;;;;9.53;64.72;100000.41;5071616;28;20089;-63
2022/09/30 01:50:46;;;;;;;15.13;10.13;;;;;;;9.49;64.84;100009.22;5030821;28;20079;-62
2022/09/30 01:53:44;;;;;;;12.68;9.40;;;;;;;9.50;64.54;99997.00;5071452;28;20033;-63
2022/09/30 01:56:21;;;;;;;13.52;8.75;;;;;;;9.49;64.61;100000.50;5060402;28;20438;-62
2022/09/30 01:58:56;;;;;;;13.38;8.32;;;;;;;9.48;64.57;99991.78;5057413;28;20029;-62
2022/09/30 02:01:30;;;;;;;14.85;8.82;;;;;;;9.45;64.64;99994.47;5055376;28;20033;-63
2022/09/30 02:04:02;;;;;;;13.45;9.13;;;;;;;9.34;65.26;99993.88;5071340;28;20063;-62
2022/09/30 02:06:40;;;;;;;14.37;9.47;;;;;;;9.28;65.42;99986.13;5068342;28;20061;-63
2022/09/30 02:09:13;;;;;;;13.70;9.43;;;;;;;9.28;65.34;99994.00;5071011;28;20312;-62
2022/09/30 02:11:41;;;;;;;15.45;9.60;;;;;;;9.14;65.76;99991.69;5060012;28;20083;-62
2022/09/30 02:14:20;;;;;;;13.95;9.13;;;;;;;9.18;65.60;99993.34;5064052;28;20044;-63
2022/09/30 02:16:58;;;;;;;13.50;9.00;;;;;;;9.19;65.63;99983.72;5057747;28;20029;-62
2022/09/30 02:19:36;;;;;;;13.93;9.77;;;;;;;9.19;65.54;99983.72;5056006;28;20033;-62
2022/09/30 02:22:15;;;;;;;13.55;9.27;;;;;;;9.18;65.54;99982.88;5059194;28;20100;-62
2022/09/30 02:24:44;;;;;;;19.88;8.40;;;;;;;9.11;65.58;99991.75;5055955;28;20025;-62
2022/09/30 02:27:18;;;;;;;11.15;7.90;;;;;;;9.00;66.07;99998.97;5070264;28;20064;-63
2022/09/30 02:29:50;;;;;;;16.15;8.35;;;;;;;8.97;65.88;100002.53;5050017;28;20100;-62
2022/09/30 02:32:42;;;;;;;11.93;8.47;;;;;;;8.86;66.07;100007.16;5068467;28;20028;-63
2022/09/30 02:35:17;;;;;;;10.35;7.70;;;;;;;8.79;66.36;100016.88;5048646;28;20086;-62
2022/09/30 02:37:49;;;;;;;9.48;7.07;;;;;;;8.76;66.28;100011.69;5057933;28;20040;-63
2022/09/30 02:40:29;;;;;;;10.57;7.70;;;;;;;8.70;66.20;100019.69;5056665;28;20381;-63
2022/09/30 02:42:55;;;;;;;11.02;7.95;;;;;;;8.64;66.34;100007.56;5057274;28;20036;-62
2022/09/30 02:45:22;;;;;;;9.40;7.82;;;;;;;8.61;66.31;100015.47;5057860;28;20033;-62
2022/09/30 02:47:54;;;;;;;9.25;6.82;;;;;;;8.58;66.31;100017.31;5071295;28;20121;-63
2022/09/30 02:50:30;;;;;;;8.80;7.40;;;;;;;8.63;66.18;100026.78;5050185;28;20518;-62
2022/09/30 02:53:07;;;;;;;10.80;8.20;;;;;;;8.68;65.96;100028.47;5058643;28;20397;-62
2022/09/30 02:55:59;;;;;;;10.88;8.45;;;;;;;8.70;65.37;100031.91;5056935;28;20032;-62
2022/09/30 02:58:26;;;;;;;10.70;8.00;;;;;;;8.71;65.48;100031.88;5052135;28;20476;-62
2022/09/30 03:00:53;;;;;;;9.23;7.30;;;;;;;8.71;65.50;100036.25;5061487;28;20020;-62
2022/09/30 03:03:22;;;;;;;11.35;8.02;;;;;;;8.67;65.34;100043.31;5057976;28;20120;-62
2022/09/30 03:05:49;;;;;;;9.10;7.15;;;;;;;8.66;65.08;100033.75;5069920;28;20024;-62
2022/09/30 03:08:15;;;;;;;10.65;7.80;;;;;;;8.63;65.11;100039.03;5057008;28;20528;-62
2022/09/30 03:10:43;;;;;;;9.40;7.40;;;;;;;8.55;65.06;100033.94;5064974;28;20055;-62
2022/09/30 03:13:31;;;;;;;8.77;6.78;;;;;;;8.37;65.13;100039.50;5055360;28;20136;-63
2022/09/30 03:16:02;;;;;;;12.35;8.00;;;;;;;8.31;65.64;100044.81;5055272;28;20029;-63
2022/09/30 03:19:12;;;;;;;10.98;7.32;;;;;;;8.23;65.69;100042.34;5044979;28;20029;-62
2022/09/30 03:21:50;;;;;;;12.57;8.65;;;;;;;8.22;65.79;100051.09;5034553;28;20034;-61
2022/09/30 03:24:51;;;;;;;10.23;8.13;;;;;;;8.26;65.73;100049.25;5042680;28;20056;-62
2022/09/30 03:27:25;;;;;;;12.50;8.52;;;;;;;8.32;65.47;100047.41;5040417;28;20080;-62
2022/09/30 03:29:59;;;;;;;11.77;7.85;;;;;;;8.26;64.98;100044.03;5054793;28;20056;-63
2022/09/30 03:32:51;;;;;;;11.07;7.75;;;;;;;8.36;64.96;100054.31;5052614;28;20033;-62
2022/09/30 03:35:57;;;;;;;11.77;8.60;;;;;;;8.45;65.11;100050.69;5054812;28;20476;-62
2022/09/30 03:38:25;;;;;;;14.98;9.68;;;;;;;8.49;64.61;100060.22;5054641;28;20028;-62
2022/09/30 03:41:07;;;;;;;12.95;8.88;;;;;;;8.49;64.53;100073.31;5054680;28;20036;-62
2022/09/30 03:43:42;;;;;;;14.52;8.50;;;;;;;8.47;64.21;100080.34;5055077;28;20081;-62
2022/09/30 03:46:16;;;;;;;11.20;8.07;;;;;;;8.52;64.49;100078.50;5049728;28;20155;-63
2022/09/30 03:48:45;;;;;;;15.60;9.73;;;;;;;8.49;64.46;100075.94;5036239;28;20116;-63
2022/09/30 03:51:12;;;;;;;12.88;8.90;;;;;;;8.48;64.54;100068.97;5052294;28;20035;-62
2022/09/30 03:53:42;;;;;;;11.50;8.68;;;;;;;8.48;64.25;100071.59;5052803;28;20175;-62
2022/09/30 03:56:08;;;;;;;10.88;8.57;;;;;;;8.53;64.23;100082.84;5052097;28;20028;-61
2022/09/30 03:58:36;;;;;;;10.63;8.07;;;;;;;8.53;64.13;100076.75;5065051;28;20036;-63
2022/09/30 04:01:02;;;;;;;13.32;8.52;;;;;;;8.55;64.12;100081.06;5073812;28;20032;-63
2022/09/30 04:03:27;;;;;;;12.60;8.13;;;;;;;8.55;64.06;100091.53;5074161;28;20120;-63
2022/09/30 04:05:53;;;;;;;12.50;8.98;;;;;;;8.44;64.25;100087.38;5074133;28;20043;-63
2022/09/30 04:08:18;;;;;;;16.15;9.95;;;;;;;8.32;64.55;100091.03;5053650;28;20049;-63
2022/09/30 04:10:44;;;;;;;15.85;8.80;;;;;;;8.32;64.60;100096.28;5054310;28;20487;-63
2022/09/30 04:13:11;;;;;;;11.40;8.13;;;;;;;8.32;64.85;100094.53;5052680;28;20033;-62
2022/09/30 04:15:36;;;;;;;12.82;8.48;;;;;;;8.30;64.98;100091.09;5052783;28;20037;-62
2022/09/30 04:18:03;;;;;;;13.95;9.60;;;;;;;8.33;64.99;100096.25;5057878;28;20136;-62
2022/09/30 04:20:29;;;;;;;12.77;9.23;;;;;;;8.42;64.83;100110.09;5052865;28;20140;-62
2022/09/30 04:22:59;;;;;;;19.52;11.60;;;;;;;8.48;64.91;100110.88;5044315;28;20128;-62
2022/09/30 04:25:26;;;;;;;13.48;9.70;;;;;;;8.57;64.65;100118.56;5035806;28;20041;-62
2022/09/30 04:27:51;;;;;;;15.80;10.85;;;;;;;8.66;64.53;100114.94;5038831;28;20468;-62
2022/09/30 04:30:17;;;;;;;14.10;9.88;;;;;;;8.87;65.37;100111.03;5053646;28;20037;-62
2022/09/30 04:32:46;;;;;;;13.95;9.35;;;;;;;8.94;64.51;100119.66;5036345;28;20080;-62
2022/09/30 04:35:12;;;;;;;13.60;9.95;;;;;;;9.03;64.21;100120.34;5038691;28;20132;-62
2022/09/30 04:37:45;;;;;;;14.77;9.57;;;;;;;9.03;63.92;100107.22;5045937;28;20041;-62
2022/09/30 04:40:12;;;;;;;13.30;9.05;;;;;;;9.14;63.74;100112.28;5046830;28;20035;-62
2022/09/30 04:42:41;;;;;;;14.43;10.05;;;;;;;9.31;63.55;100112.78;5034013;28;20045;-62
2022/09/30 04:45:08;;;;;;;14.77;9.57;;;;;;;9.29;63.25;100101.44;5057424;28;20045;-63
2022/09/30 04:47:34;;;;;;;16.25;11.85;;;;;;;9.18;63.66;100098.22;5072896;28;20044;-62
2022/09/30 04:49:59;;;;;;;16.63;10.63;;;;;;;9.20;63.66;100101.66;5053447;28;20037;-62
2022/09/30 04:52:24;;;;;;;16.02;11.00;;;;;;;9.16;63.77;100102.59;5052491;28;20037;-62
2022/09/30 04:54:50;;;;;;;15.88;11.00;;;;;;;9.27;63.87;100107.63;5038327;28;20397;-63
2022/09/30 04:57:16;;;;;;;18.10;11.85;;;;;;;9.26;63.90;100104.16;5037478;28;20469;-62
2022/09/30 04:59:42;;;;;;;16.15;11.90;;;;;;;9.23;63.95;100105.97;5038474;28;20480;-63
2022/09/30 05:02:11;;;;;;;20.58;11.65;;;;;;;9.31;63.96;100109.31;5037473;28;20046;-62
2022/09/30 05:04:37;;;;;;;22.17;15.35;;;;;;;9.39;63.70;100107.38;5047179;28;20111;-64
2022/09/30 05:07:07;;;;;;;17.17;12.57;;;;;;;9.42;63.56;100101.22;5053294;28;20175;-63
2022/09/30 05:09:33;;;;;;;17.95;12.15;;;;;;;9.50;63.48;100107.16;5035229;28;20183;-62
2022/09/30 05:12:01;;;;;;;16.30;11.27;;;;;;;9.59;63.15;100109.56;5033509;28;20434;-63
2022/09/30 05:14:26;;;;;;;19.15;13.20;;;;;;;9.75;63.01;100115.34;5038470;28;20156;-63
2022/09/30 05:16:51;;;;;;;21.73;14.80;;;;;;;9.89;62.77;100113.25;5051409;28;20124;-63
2022/09/30 05:19:17;;;;;;;24.52;16.38;;;;;;;10.04;62.45;100120.78;5037922;28;20047;-60
2022/09/30 05:21:43;;;;;;;16.98;13.30;;;;;;;10.24;62.29;100128.19;5055580;28;20036;-62
2022/09/30 05:24:09;;;;;;;16.17;11.52;;;;;;;10.41;61.94;100121.69;5056504;28;20029;-62
2022/09/30 05:26:35;;;;;;;19.42;11.90;;;;;;;10.53;61.98;100130.13;5042896;28;20132;-62
2022/09/30 05:29:00;;;;;;;17.88;10.65;;;;;;;10.66;61.69;100128.06;5045902;28;20104;-62
2022/09/30 05:31:26;;;;;;;19.17;11.15;;;;;;;10.77;61.46;100136.53;5057146;28;20035;-62
2022/09/30 05:33:53;;;;;;;15.25;10.80;;;;;;;10.91;60.97;100130.88;5057018;28;20055;-62
2022/09/30 05:36:19;;;;;;;15.30;10.27;;;;;;;10.97;60.62;100128.09;5058805;28;20049;-62
2022/09/30 05:38:44;;;;;;;16.13;10.90;;;;;;;10.75;60.74;100134.81;5066098;28;20035;-63
2022/09/30 05:41:12;;;;;;;14.93;10.93;;;;;;;10.71;60.96;100143.69;5057030;28;20063;-61
2022/09/30 05:43:39;;;;;;;13.25;10.23;;;;;;;10.69;61.05;100142.84;5054153;28;20051;-62
2022/09/30 05:46:04;;;;;;;18.05;11.13;;;;;;;10.82;61.03;100145.13;5056728;28;20061;-62
2022/09/30 05:48:30;;;;;;;14.13;10.40;;;;;;;10.66;60.98;100138.56;5056761;28;20072;-62
2022/09/30 05:50:57;;;;;;;17.75;12.63;;;;;;;10.63;61.42;100148.28;5056971;28;20033;-61
2022/09/30 05:53:23;;;;;;;19.33;11.25;;;;;;;10.72;61.39;100154.16;5056827;28;20037;-61
2022/09/30 05:55:49;;;;;;;15.80;11.23;;;;;;;10.83;61.44;100151.25;5061394;28;20387;-60
2022/09/30 05:58:15;;;;;;;15.88;11.63;;;;;;;11.05;61.49;100155.03;5061194;28;20036;-63
2022/09/30 06:00:42;;;;;;;17.67;11.05;;;;;;;11.33;61.07;100151.66;5068816;28;20132;-63
2022/09/30 06:03:08;;;;;;;15.05;10.65;;;;;;;11.60;61.11;100160.50;5056518;28;20087;-63
2022/09/30 06:05:33;;;;;;;15.10;10.57;;;;;;;11.77;60.31;100157.38;5056703;28;20029;-62
2022/09/30 06:07:59;;;;;;;14.75;10.50;;;;;;;11.79;60.05;100161.69;5056566;28;20033;-63
2022/09/30 06:10:24;;;;;;;18.80;12.30;;;;;;;11.84;60.24;100165.06;5056377;28;20465;-62
2022/09/30 06:12:50;;;;;;;16.33;11.20;;;;;;;11.92;60.28;100171.88;5056227;28;20063;-62
2022/09/30 06:15:16;;;;;;;17.60;10.70;;;;;;;11.96;60.21;100170.88;5056452;28;20071;-62
2022/09/30 06:17:41;;;;;;;16.10;10.25;;;;;;;12.05;60.37;100170.59;5054783;28;20057;-62
2022/09/30 06:20:09;;;;;;;18.30;11.52;;;;;;;12.07;60.39;100177.53;5055879;28;20041;-62
2022/09/30 06:22:37;;;;;;;17.40;11.52;;;;;;;11.98;60.49;100187.50;5055623;28;20119;-63
2022/09/30 06:25:04;;;;;;;16.48;11.13;;;;;;;11.92;60.32;100195.56;5053500;28;20029;-62
2022/09/30 06:27:32;;;;;;;16.85;11.50;;;;;;;11.93;60.54;100194.66;5067337;28;20384;-62
2022/09/30 06:29:58;;;;;;;15.23;11.20;;;;;;;12.01;60.91;100192.69;5056827;28;20362;-61
2022/09/30 06:32:25;;;;;;;15.73;11.02;;;;;;;12.17;60.81;100187.78;5055486;28;20044;-62
2022/09/30 06:34:54;;;;;;;15.38;10.68;;;;;;;12.25;60.50;100193.69;5058681;28;20039;-62
2022/09/30 06:37:21;;;;;;;14.15;10.50;;;;;;;12.33;60.39;100200.44;5055752;28;20036;-62
2022/09/30 06:39:47;;;;;;;14.13;10.93;;;;;;;12.43;60.17;100203.63;5066228;28;20041;-64
2022/09/30 06:42:12;;;;;;;15.82;10.88;;;;;;;12.46;59.98;100203.53;5065166;28;20036;-63
2022/09/30 06:44:37;;;;;;;12.65;9.60;;;;;;;12.55;59.73;100205.00;5060593;28;20051;-63
2022/09/30 06:47:03;;;;;;;15.25;11.07;;;;;;;12.64;59.43;100207.31;5055776;28;20033;-62
2022/09/30 06:49:28;;;;;;;15.13;10.68;;;;;;;12.75;59.41;100202.56;5056924;28;20028;-61
2022/09/30 06:51:53;;;;;;;15.50;10.57;;;;;;;13.06;58.93;100218.22;5058486;28;20037;-66
2022/09/30 06:54:21;;;;;;;15.00;9.95;;;;;;;13.37;58.22;100218.97;5055387;28;20037;-66
2022/09/30 06:56:47;;;;;;;16.15;10.20;;;;;;;13.51;57.93;100216.69;5055439;28;20522;-66
2022/09/30 06:59:15;;;;;;;14.93;10.40;;;;;;;13.69;57.57;100210.75;5055251;28;20031;-64
2022/09/30 07:01:43;;;;;;;14.00;9.85;;;;;;;13.98;57.11;100219.34;5055409;28;20167;-65
2022/09/30 07:04:11;;;;;;;13.05;9.90;;;;;;;14.09;57.08;100217.16;5055635;28;20111;-64
2022/09/30 07:06:37;;;;;;;12.35;9.30;;;;;;;14.32;56.77;100218.88;5067387;28;20068;-65
2022/09/30 07:09:07;;;;;;;12.68;9.15;;;;;;;14.40;56.74;100226.50;5055368;28;20041;-64
2022/09/30 07:11:32;;;;;;;12.15;9.52;;;;;;;14.54;56.67;100232.13;5068152;28;20032;-65
2022/09/30 07:13:58;;;;;;;15.85;10.57;;;;;;;14.68;56.57;100231.56;5073472;28;20436;-64
2022/09/30 07:16:26;;;;;;;15.70;10.80;;;;;;;14.70;56.59;100235.03;5055503;28;20029;-64
2022/09/30 07:18:52;;;;;;;14.40;10.35;;;;;;;14.76;56.61;100232.13;5055385;28;20029;-65
2022/09/30 07:21:18;;;;;;;13.77;10.43;;;;;;;14.67;57.11;100243.06;5061360;28;20048;-65
2022/09/30 07:23:47;;;;;;;16.33;11.48;;;;;;;14.48;57.65;100232.34;5066291;28;20041;-66
2022/09/30 07:26:17;;;;;;;20.17;14.50;;;;;;;14.23;58.96;100240.38;5058412;28;20111;-65
2022/09/30 07:28:43;;;;;;;18.30;12.13;;;;;;;13.99;59.31;100243.03;5055375;28;20104;-64
2022/09/30 07:31:11;;;;;;;16.45;12.05;;;;;;;13.80;59.90;100242.00;5062733;28;20439;-64
2022/09/30 07:33:38;;;;;;;17.38;13.02;;;;;;;13.67;60.46;100246.03;5064100;28;20029;-65
2022/09/30 07:36:07;;;;;;;15.77;11.27;;;;;;;13.79;60.32;100242.94;5066594;28;20032;-66
2022/09/30 07:38:35;;;;;;;18.73;13.07;;;;;;;13.94;60.01;100246.78;5070309;28;20063;-64
2022/09/30 07:41:23;;;;;;;17.52;11.90;;;;;;;13.99;61.04;100248.31;5054326;28;20099;-64
2022/09/30 07:43:49;;;;;;;16.83;12.05;;;;;;;14.07;60.06;100244.53;5057132;28;20049;-66
2022/09/30 07:46:21;;;;;;;20.02;13.15;;;;;;;14.23;59.79;100250.97;5054855;28;20033;-66
2022/09/30 07:48:49;;;;;;;16.23;11.77;;;;;;;14.43;59.65;100252.81;5065620;28;20032;-63
2022/09/30 07:51:23;;;;;;;18.83;12.95;;;;;;;14.47;59.75;100251.78;5062332;28;20472;-65
2022/09/30 07:53:52;;;;;;;15.20;10.65;;;;;;;14.60;59.24;100260.09;5059123;28;20090;-63
2022/09/30 07:56:18;;;;;;;18.08;11.07;;;;;;;14.70;59.29;100262.31;5061094;28;20033;-65
2022/09/30 07:58:44;;;;;;;15.75;11.30;;;;;;;14.89;58.75;100257.16;5053023;28;20117;-65
2022/09/30 08:01:10;;;;;;;14.30;9.80;;;;;;;15.10;58.46;100259.81;5074266;28;20134;-65
2022/09/30 08:03:38;;;;;;;16.63;10.85;;;;;;;15.10;58.14;100265.13;5046299;28;20032;-64
2022/09/30 08:06:09;;;;;;;13.05;9.85;;;;;;;15.01;58.19;100261.94;5053132;28;20041;-63
2022/09/30 08:08:35;;;;;;;12.43;9.57;;;;;;;15.03;58.18;100265.34;5065987;28;20047;-58
2022/09/30 08:11:02;;;;;;;15.10;10.23;;;;;;;15.06;58.27;100268.81;5048010;28;20045;-65
2022/09/30 08:13:27;;;;;;;12.80;9.65;;;;;;;15.18;58.18;100268.31;5054954;28;20032;-65
2022/09/30 08:15:53;;;;;;;13.60;10.00;;;;;;;15.40;57.83;100269.13;5052420;28;20040;-64
2022/09/30 08:18:18;;;;;;;14.95;10.40;;;;;;;15.59;57.38;100276.25;5049259;28;20029;-62
2022/09/30 08:20:43;;;;;;;17.67;11.68;;;;;;;15.65;56.94;100268.06;5045025;28;20063;-63
2022/09/30 08:23:09;;;;;;;19.50;12.20;;;;;;;15.69;56.96;100273.16;5061426;28;20067;-64
2022/09/30 08:25:34;;;;;;;16.08;10.98;;;;;;;15.87;56.76;100284.69;5061755;28;20040;-62
2022/09/30 08:28:00;;;;;;;14.50;10.40;;;;;;;16.02;56.82;100275.22;5054461;28;20037;-63
2022/09/30 08:30:25;;;;;;;15.10;10.57;;;;;;;16.15;56.61;100283.44;5052393;28;20047;-63
2022/09/30 08:32:51;;;;;;;13.90;8.88;;;;;;;16.09;56.47;100284.59;5053997;28;20028;-65
2022/09/30 08:35:16;;;;;;;9.73;7.72;;;;;;;15.99;56.57;100293.88;5052515;28;20175;-65
2022/09/30 08:37:42;;;;;;;10.43;7.88;;;;;;;16.00;56.59;100283.25;5047985;28;20033;-64
2022/09/30 08:40:18;;;;;;;11.55;7.90;;;;;;;16.14;56.34;100297.63;5032515;28;20041;-63
2022/09/30 08:43:08;;;;;;;11.18;7.43;;;;;;;16.20;56.24;100295.59;5034814;28;20040;-64
2022/09/30 08:45:54;;;;;;;10.55;7.13;;;;;;;16.28;55.44;100303.19;5032496;28;20048;-63
2022/09/30 08:48:38;;;;;;;9.93;6.78;;;;;;;16.15;55.29;100302.84;5055745;28;20040;-64
2022/09/30 08:51:12;;;;;;;9.88;6.90;;;;;;;16.12;56.28;100299.53;5073640;28;20115;-64
2022/09/30 08:53:42;;;;;;;10.52;7.22;;;;;;;16.24;55.83;100298.94;5073391;28;20029;-64
2022/09/30 08:56:16;;;;;;;10.55;7.10;;;;;;;16.39;55.49;100298.22;5057529;28;20048;-64
2022/09/30 08:58:50;;;;;;;10.20;7.35;;;;;;;16.64;55.63;100297.06;5033862;28;20090;-63
2022/09/30 09:01:24;;;;;;;9.32;6.10;;;;;;;16.82;56.37;100296.19;5033581;28;20029;-64
2022/09/30 09:03:49;;;;;;;11.40;8.20;;;;;;;16.85;56.38;100305.81;5033308;28;20108;-64
2022/09/30 09:06:14;;;;;;;14.23;9.82;;;;;;;16.76;57.26;100315.09;5033917;28;20108;-64
2022/09/30 09:09:01;;;;;;;14.15;10.02;;;;;;;16.77;57.55;100311.50;5033801;28;20465;-64
2022/09/30 09:11:39;;;;;;;19.92;11.38;;;;;;;16.77;57.07;100319.44;5033033;28;20040;-64
2022/09/30 09:14:27;;;;;;;11.88;9.00;;;;;;;16.61;57.22;100329.03;5033380;28;20056;-65
2022/09/30 09:17:43;;;;;;;12.82;8.02;;;;;;;16.47;56.12;100327.88;5033292;28;20055;-64
2022/09/30 09:20:13;;;;;;;11.15;7.38;;;;;;;16.47;56.66;100322.56;5031760;28;20116;-65
2022/09/30 09:22:38;;;;;;;9.43;7.32;;;;;;;16.44;56.41;100314.78;5033456;28;20080;-64
2022/09/30 09:25:04;;;;;;;9.45;7.05;;;;;;;16.46;56.76;100312.91;5033466;28;20037;-64
2022/09/30 09:27:50;;;;;;;11.55;8.75;;;;;;;16.60;56.85;100319.38;5032347;28;20029;-64
2022/09/30 09:30:20;;;;;;;12.05;8.98;;;;;;;16.67;57.36;100318.13;5032083;28;20469;-64
2022/09/30 09:33:00;;;;;;;11.18;8.20;;;;;;;16.64;57.44;100319.16;5033344;28;20026;-63
2022/09/30 09:35:39;;;;;;;11.35;8.30;;;;;;;16.62;56.74;100322.78;5033375;28;20025;-62
2022/09/30 09:38:25;;;;;;;11.55;8.00;;;;;;;16.55;56.03;100321.38;5033238;28;20057;-63
2022/09/30 09:41:46;;;;;;;12.35;8.65;;;;;;;16.51;56.49;100324.16;5033460;28;20038;-63
2022/09/30 09:44:13;;;;;;;12.65;8.15;;;;;;;16.57;56.74;100324.81;4972085;28;20046;-63
2022/09/30 09:46:45;;;;;;;12.75;8.95;;;;;;;16.63;56.58;100324.50;5021440;28;20068;-64
2022/09/30 09:49:19;;;;;;;12.25;8.30;;;;;;;16.77;56.15;100330.06;5032902;28;20497;-64
2022/09/30 09:52:11;;;;;;;11.02;8.18;;;;;;;16.87;55.49;100328.66;5032987;28;20045;-64
2022/09/30 09:54:40;;;;;;;10.30;7.22;;;;;;;17.02;55.23;100328.88;5033253;28;20092;-64
2022/09/30 09:57:11;;;;;;;11.75;7.97;;;;;;;17.15;54.95;100319.34;5033117;28;20095;-64
2022/09/30 09:59:53;;;;;;;12.20;8.10;;;;;;;17.35;54.38;100332.50;5032972;28;20120;-64
2022/09/30 10:02:25;;;;;;;10.75;8.05;;;;;;;17.51;54.44;100321.09;5031946;28;20026;-63
2022/09/30 10:04:58;;;;;;;13.02;8.73;;;;;;;17.59;53.98;100329.53;5033364;28;20033;-64
2022/09/30 10:07:26;;;;;;;9.35;7.45;;;;;;;17.64;53.67;100316.88;5037155;28;20177;-63
2022/09/30 10:10:05;;;;;;;11.50;8.20;;;;;;;17.76;52.58;100324.25;5036763;28;20037;-64
2022/09/30 10:12:30;;;;;;;12.68;8.95;;;;;;;17.85;52.68;100320.25;5036593;28;20206;-64
2022/09/30 10:15:11;;;;;;;12.50;8.98;;;;;;;18.09;51.08;100323.41;5036263;28;20493;-64
2022/09/30 10:17:37;;;;;;;12.45;8.75;;;;;;;18.09;51.57;100323.41;5036688;28;20037;-64
2022/09/30 10:20:14;;;;;;;12.93;9.57;;;;;;;18.12;50.44;100325.91;5036550;28;20042;-64
2022/09/30 10:22:41;;;;;;;10.23;7.97;;;;;;;18.17;51.48;100316.72;5036488;28;20044;-63
2022/09/30 10:25:24;;;;;;;10.57;7.90;;;;;;;18.29;50.70;100312.53;5036373;28;20037;-64
2022/09/30 10:28:00;;;;;;;12.27;9.30;;;;;;;18.34;51.06;100313.13;5036243;28;20039;-64
2022/09/30 10:30:37;;;;;;;10.82;8.60;;;;;;;18.54;50.64;100306.72;5036069;28;20473;-64
2022/09/30 10:33:20;;;;;;;8.65;6.32;;;;;;;18.75;52.22;100310.03;5038564;28;20033;-64
2022/09/30 10:35:53;;;;;;;9.77;7.75;;;;;;;18.93;49.81;100311.63;5046290;28;20156;-65
2022/09/30 10:38:20;;;;;;;13.07;8.40;;;;;;;19.07;50.48;100312.63;5050626;28;20452;-65
2022/09/30 10:40:50;;;;;;;9.80;7.68;;;;;;;19.28;51.09;100315.88;5055771;28;20114;-64
2022/09/30 10:43:22;;;;;;;8.35;6.18;;;;;;;19.57;49.62;100316.78;5036019;28;20054;-65
2022/09/30 10:45:48;;;;;;;7.65;6.43;;;;;;;19.81;49.88;100320.66;5036020;28;20025;-66
2022/09/30 10:48:18;;;;;;;10.02;7.90;;;;;;;19.91;48.07;100305.84;5036075;28;20044;-64
2022/09/30 10:50:52;;;;;;;8.27;6.43;;;;;;;19.87;46.55;100301.66;5045069;28;20033;-66
2022/09/30 10:53:22;;;;;;;9.23;6.88;;;;;;;19.81;47.49;100299.34;5061446;28;20032;-65
2022/09/30 10:55:47;;;;;;;8.55;6.82;;;;;;;19.92;47.82;100307.53;5075197;28;20038;-64
2022/09/30 10:58:21;;;;;;;7.85;5.85;;;;;;;20.09;47.35;100297.63;5050399;28;20554;-64
2022/09/30 11:00:56;;;;;;;6.68;5.90;;;;;;;20.25;44.35;100300.19;5071355;28;20113;-65
2022/09/30 11:03:31;;;;;;;7.85;5.93;;;;;;;20.31;45.63;100299.81;5070727;28;20033;-65
2022/09/30 11:05:59;;;;;;;8.75;5.35;;;;;;;20.40;45.64;100297.41;5043502;28;20029;-65
2022/09/30 11:08:52;;;;;;;5.95;4.80;;;;;;;20.50;43.69;100303.03;5054022;28;20049;-65
2022/09/30 11:11:20;;;;;;;;;;;;;;;20.58;47.16;100297.22;5065900;28;20503;-65
2022/09/30 11:14:19;;;;;;;5.85;4.55;;;;;;;20.50;45.82;100297.72;5046628;28;20449;-65
2022/09/30 11:17:04;;;;;;;10.18;5.97;;;;;;;20.45;46.81;100296.28;5034911;28;20052;-64
2022/09/30 11:19:39;;;;;;;10.05;7.18;;;;;;;20.50;46.48;100303.03;5045470;28;20029;-64
2022/09/30 11:22:35;;;;;;;9.52;6.32;;;;;;;20.67;46.74;100294.81;5045874;28;20061;-65
2022/09/30 11:25:00;;;;;;;8.40;5.60;;;;;;;21.06;46.68;100309.16;5034024;28;20532;-64
2022/09/30 11:27:38;;;;;;;10.95;7.85;;;;;;;21.32;43.55;100291.44;5035581;28;20038;-64
2022/09/30 11:30:09;;;;;;;10.13;7.25;;;;;;;21.28;44.54;100299.75;5035023;28;20440;-65
2022/09/30 11:32:34;;;;;;;9.75;6.10;;;;;;;21.39;44.92;100306.09;5035806;28;20475;-65
2022/09/30 11:35:17;;;;;;;8.43;5.77;;;;;;;21.52;43.20;100290.09;5034920;28;20469;-65
2022/09/30 11:37:48;;;;;;;8.35;5.10;;;;;;;21.87;43.26;100298.34;5033736;28;20251;-64
2022/09/30 11:40:52;;;;;;;6.30;4.85;;;;;;;21.83;38.98;100302.19;5035627;28;20045;-65